sensor_id;sensor_type;location;lat;lon;timestamp;temperature;humidity
75099;DHT22;63685;47.374;8.498;2022-09-20T10:20:31;24.90;35.60
75099;DHT22;63685;47.374;8.498;2022-09-20T10:23:26;23.90;37.20
75099;DHT22;63685;47.374;8.498;2022-09-20T10:26:32;23.20;40.10
75099;DHT22;63685;47.374;8.498;2022-09-20T10:29:19;23.20;37.30
75099;DHT22;63685;47.374;8.498;2022-09-20T20:20:47;22.00;55.70
75099;DHT22;63685;47.374;8.498;2022-09-20T20:23:38;22.00;56.50
75099;DHT22;63685;47.374;8.498;2022-09-20T20:26:08;22.00;56.60
75099;DHT22;63685;47.374;8.498;2022-09-20T20:28:35;22.00;56.70
75099;DHT22;63685;47.374;8.498;2022-09-20T20:31:01;22.00;56.80
75099;DHT22;63685;47.374;8.498;2022-09-20T20:33:27;22.00;56.90
75099;DHT22;63685;47.374;8.498;2022-09-20T20:35:54;22.00;57.00
75099;DHT22;63685;47.374;8.498;2022-09-20T20:38:21;22.00;57.00
75099;DHT22;63685;47.374;8.498;2022-09-20T20:41:07;22.00;57.10
75099;DHT22;63685;47.374;8.498;2022-09-20T20:43:36;22.00;57.20
75099;DHT22;63685;47.374;8.498;2022-09-20T20:46:03;22.00;57.20
75099;DHT22;63685;47.374;8.498;2022-09-20T20:48:29;22.00;57.40
75099;DHT22;63685;47.374;8.498;2022-09-20T20:51:00;22.00;57.30
75099;DHT22;63685;47.374;8.498;2022-09-20T20:53:29;22.10;57.20
75099;DHT22;63685;47.374;8.498;2022-09-20T20:56:01;22.00;56.10
75099;DHT22;63685;47.374;8.498;2022-09-20T20:58:31;22.00;54.70
75099;DHT22;63685;47.374;8.498;2022-09-20T21:01:04;22.00;54.70
75099;DHT22;63685;47.374;8.498;2022-09-20T21:03:30;22.00;54.90
75099;DHT22;63685;47.374;8.498;2022-09-20T21:05:56;22.00;54.60
75099;DHT22;63685;47.374;8.498;2022-09-20T21:08:21;21.90;54.80
75099;DHT22;63685;47.374;8.498;2022-09-20T21:10:47;21.90;54.40
75099;DHT22;63685;47.374;8.498;2022-09-20T21:13:12;21.90;54.30
75099;DHT22;63685;47.374;8.498;2022-09-20T21:15:38;21.90;54.90
75099;DHT22;63685;47.374;8.498;2022-09-20T21:18:03;21.80;55.20
75099;DHT22;63685;47.374;8.498;2022-09-20T21:20:29;21.80;55.50
75099;DHT22;63685;47.374;8.498;2022-09-20T21:22:55;21.90;55.90
75099;DHT22;63685;47.374;8.498;2022-09-20T21:25:21;21.90;56.10
75099;DHT22;63685;47.374;8.498;2022-09-20T21:27:46;21.90;56.20
75099;DHT22;63685;47.374;8.498;2022-09-20T21:30:12;21.90;56.40
75099;DHT22;63685;47.374;8.498;2022-09-20T21:32:38;21.90;56.50
75099;DHT22;63685;47.374;8.498;2022-09-20T21:35:04;21.90;56.50
75099;DHT22;63685;47.374;8.498;2022-09-20T21:37:29;21.90;56.60
75099;DHT22;63685;47.374;8.498;2022-09-20T21:39:55;21.90;56.90
75099;DHT22;63685;47.374;8.498;2022-09-20T21:42:20;22.00;57.40
75099;DHT22;63685;47.374;8.498;2022-09-20T21:44:46;21.90;57.00
75099;DHT22;63685;47.374;8.498;2022-09-20T21:47:12;21.90;57.10
75099;DHT22;63685;47.374;8.498;2022-09-20T21:49:45;21.90;57.00
75099;DHT22;63685;47.374;8.498;2022-09-20T21:52:11;21.90;56.90
75099;DHT22;63685;47.374;8.498;2022-09-20T21:54:36;21.90;57.00
75099;DHT22;63685;47.374;8.498;2022-09-20T21:57:02;21.90;57.20
75099;DHT22;63685;47.374;8.498;2022-09-20T21:59:27;21.80;57.20
75099;DHT22;63685;47.374;8.498;2022-09-20T22:01:53;21.80;57.20
75099;DHT22;63685;47.374;8.498;2022-09-20T22:04:19;21.80;57.90
75099;DHT22;63685;47.374;8.498;2022-09-20T22:06:45;21.80;58.00
75099;DHT22;63685;47.374;8.498;2022-09-20T22:09:15;21.90;57.50
75099;DHT22;63685;47.374;8.498;2022-09-20T22:11:46;21.80;57.50
75099;DHT22;63685;47.374;8.498;2022-09-20T22:14:13;21.80;57.60
75099;DHT22;63685;47.374;8.498;2022-09-20T22:16:41;21.80;57.70
75099;DHT22;63685;47.374;8.498;2022-09-20T22:19:08;21.80;57.80
75099;DHT22;63685;47.374;8.498;2022-09-20T22:21:37;21.80;57.80
75099;DHT22;63685;47.374;8.498;2022-09-20T22:24:07;21.80;57.80
75099;DHT22;63685;47.374;8.498;2022-09-20T22:26:37;21.80;57.90
75099;DHT22;63685;47.374;8.498;2022-09-20T22:29:03;21.80;58.40
75099;DHT22;63685;47.374;8.498;2022-09-20T22:31:30;21.70;58.30
75099;DHT22;63685;47.374;8.498;2022-09-20T22:33:58;21.70;58.30
75099;DHT22;63685;47.374;8.498;2022-09-20T22:36:29;21.80;58.80
75099;DHT22;63685;47.374;8.498;2022-09-20T22:38:55;21.70;59.40
75099;DHT22;63685;47.374;8.498;2022-09-20T22:41:21;21.80;59.20
75099;DHT22;63685;47.374;8.498;2022-09-20T22:43:47;21.70;59.00
75099;DHT22;63685;47.374;8.498;2022-09-20T22:46:16;21.70;59.30
75099;DHT22;63685;47.374;8.498;2022-09-20T22:48:42;21.80;59.10
75099;DHT22;63685;47.374;8.498;2022-09-20T22:51:10;21.70;59.10
75099;DHT22;63685;47.374;8.498;2022-09-20T22:53:36;21.70;59.90
75099;DHT22;63685;47.374;8.498;2022-09-20T22:58:39;21.70;59.50
75099;DHT22;63685;47.374;8.498;2022-09-20T23:01:12;21.70;59.70
75099;DHT22;63685;47.374;8.498;2022-09-20T23:03:39;21.70;59.60
75099;DHT22;63685;47.374;8.498;2022-09-20T23:06:17;21.70;59.80
75099;DHT22;63685;47.374;8.498;2022-09-20T23:08:51;21.70;59.70
75099;DHT22;63685;47.374;8.498;2022-09-20T23:11:17;21.70;59.70
75099;DHT22;63685;47.374;8.498;2022-09-20T23:13:43;21.70;59.70
75099;DHT22;63685;47.374;8.498;2022-09-20T23:16:17;21.80;59.80
75099;DHT22;63685;47.374;8.498;2022-09-20T23:18:44;21.70;59.80
75099;DHT22;63685;47.374;8.498;2022-09-20T23:21:10;21.70;59.80
75099;DHT22;63685;47.374;8.498;2022-09-20T23:23:36;21.70;59.90
75099;DHT22;63685;47.374;8.498;2022-09-20T23:26:06;21.70;59.90
75099;DHT22;63685;47.374;8.498;2022-09-20T23:28:37;21.70;60.00
75099;DHT22;63685;47.374;8.498;2022-09-20T23:31:08;21.70;59.90
75099;DHT22;63685;47.374;8.498;2022-09-20T23:33:34;21.70;59.90
75099;DHT22;63685;47.374;8.498;2022-09-20T23:36:00;21.70;59.90
75099;DHT22;63685;47.374;8.498;2022-09-20T23:38:26;21.70;60.00
75099;DHT22;63685;47.374;8.498;2022-09-20T23:40:51;21.70;59.90
75099;DHT22;63685;47.374;8.498;2022-09-20T23:43:17;21.70;60.00
75099;DHT22;63685;47.374;8.498;2022-09-20T23:45:44;21.70;60.00
75099;DHT22;63685;47.374;8.498;2022-09-20T23:48:09;21.70;60.10
75099;DHT22;63685;47.374;8.498;2022-09-20T23:50:35;21.70;60.10
75099;DHT22;63685;47.374;8.498;2022-09-20T23:53:00;21.70;60.10
75099;DHT22;63685;47.374;8.498;2022-09-20T23:55:26;21.70;60.10
75099;DHT22;63685;47.374;8.498;2022-09-20T23:57:55;21.70;60.10
